createdAt,value
2019-01-09T00:02:15.911Z,93.18
2019-01-09T00:04:46.448Z,93.23
2019-01-09T00:07:16.981Z,92.61
2019-01-09T00:09:48.920Z,92.42
2019-01-09T00:12:19.530Z,92.38
2019-01-09T00:14:50.029Z,92.31
2019-01-09T00:17:20.584Z,92.60
2019-01-09T00:19:51.085Z,92.81
2019-01-09T00:22:21.630Z,93.30
2019-01-09T00:24:53.587Z,93.37
2019-01-09T00:27:24.135Z,93.54
2019-01-09T00:29:54.680Z,93.61
2019-01-09T00:32:25.209Z,93.84
2019-01-09T00:34:55.743Z,93.64
2019-01-09T00:37:26.303Z,94.59
2019-01-09T00:39:57.072Z,95.69
2019-01-09T00:42:27.623Z,96.49
2019-01-09T00:44:58.198Z,96.79
2019-01-09T00:47:28.759Z,97.34
2019-01-09T00:49:59.316Z,97.81
2019-01-09T00:52:29.837Z,98.00
2019-01-09T00:55:00.404Z,97.96
2019-01-09T00:57:30.906Z,98.58
2019-01-09T01:00:04.520Z,98.34
2019-01-09T01:03:27.362Z,98.49
2019-01-09T01:06:48.824Z,98.65
2019-01-09T01:10:13.646Z,99.00
2019-01-09T01:13:37.805Z,99.24
2019-01-09T01:17:22.155Z,99.72
2019-01-09T01:20:32.006Z,99.10
2019-01-09T01:24:25.184Z,98.75
2019-01-09T01:27:12.146Z,98.15
2019-01-09T01:30:49.617Z,97.69
2019-01-09T01:34:11.392Z,97.85
2019-01-09T01:37:56.866Z,97.35
2019-01-09T01:41:10.895Z,96.70
2019-01-09T01:44:16.104Z,96.91
2019-01-09T01:47:58.395Z,97.47
2019-01-09T01:51:19.768Z,97.87
2019-01-09T01:54:43.402Z,98.04
2019-01-09T01:58:10.287Z,97.32
2019-01-09T02:01:52.395Z,96.65
2019-01-09T02:05:37.641Z,97.08
2019-01-09T02:09:12.906Z,96.54
2019-01-09T02:12:34.583Z,95.60
2019-01-09T02:16:34.760Z,95.80
2019-01-09T02:19:28.802Z,95.19
2019-01-09T02:22:58.300Z,94.99
2019-01-09T02:26:24.719Z,94.81
2019-01-09T02:30:05.962Z,94.96
2019-01-09T02:32:36.433Z,94.39
2019-01-09T02:35:06.965Z,94.07
2019-01-09T02:37:39.931Z,94.54
2019-01-09T02:40:10.487Z,94.40
2019-01-09T02:42:40.997Z,93.66
2019-01-09T02:45:12.799Z,93.27
2019-01-09T02:47:43.354Z,92.85
2019-01-09T02:50:13.911Z,92.93
2019-01-09T02:52:44.417Z,92.86
2019-01-09T02:55:14.968Z,92.28
2019-01-09T02:57:45.519Z,92.22
2019-01-09T03:00:16.069Z,92.43
2019-01-09T03:02:46.633Z,92.59
2019-01-09T03:05:17.129Z,91.78
2019-01-09T03:07:47.652Z,91.83
2019-01-09T03:10:18.933Z,91.51
2019-01-09T03:12:49.439Z,91.37
2019-01-09T03:15:19.982Z,91.14
2019-01-09T03:17:50.490Z,91.45
2019-01-09T03:20:21.031Z,92.64
2019-01-09T03:22:51.597Z,91.57
2019-01-09T03:25:22.114Z,91.69
2019-01-09T03:27:52.663Z,91.63
2019-01-09T03:30:23.181Z,91.81
2019-01-09T03:32:53.742Z,91.87
2019-01-09T03:35:24.249Z,91.49
2019-01-09T03:37:54.842Z,91.21
2019-01-09T03:40:25.379Z,91.20
2019-01-09T03:42:55.920Z,92.39
2019-01-09T03:45:26.500Z,92.70
2019-01-09T03:47:56.983Z,92.15
2019-01-09T03:50:27.534Z,92.55
2019-01-09T03:52:58.070Z,93.54
2019-01-09T03:55:28.562Z,93.14
2019-01-09T03:57:59.107Z,92.27
2019-01-09T04:00:29.615Z,92.36
2019-01-09T04:03:00.205Z,92.46
2019-01-09T04:05:30.754Z,92.16
2019-01-09T04:08:01.285Z,91.52
2019-01-09T04:10:31.771Z,91.40
2019-01-09T04:13:02.334Z,91.06
2019-01-09T04:15:33.067Z,90.49
2019-01-09T04:18:03.574Z,90.69
2019-01-09T04:20:34.111Z,90.45
2019-01-09T04:23:04.759Z,90.42
2019-01-09T04:25:35.301Z,90.03
2019-01-09T04:28:05.874Z,90.50
2019-01-09T04:30:36.388Z,90.39
2019-01-09T04:33:06.933Z,90.67
2019-01-09T04:35:39.776Z,90.99
2019-01-09T04:38:10.329Z,89.99
2019-01-09T04:40:40.914Z,89.75
2019-01-09T04:43:11.471Z,90.25
2019-01-09T04:45:41.998Z,89.73
2019-01-09T04:48:12.508Z,89.50
2019-01-09T04:50:43.039Z,89.67
2019-01-09T04:53:13.595Z,89.61
2019-01-09T04:55:44.240Z,89.59
2019-01-09T04:58:14.741Z,90.00
2019-01-09T05:00:45.305Z,89.82
2019-01-09T05:03:15.858Z,90.33
2019-01-09T05:05:46.393Z,91.29
2019-01-09T05:08:16.908Z,92.00
2019-01-09T05:10:47.495Z,92.72
2019-01-09T05:13:19.715Z,93.61
2019-01-09T05:15:51.935Z,93.43
2019-01-09T05:18:22.489Z,93.73
2019-01-09T05:20:53.056Z,93.45
2019-01-09T05:23:23.665Z,94.10
2019-01-09T05:25:54.185Z,93.87
2019-01-09T05:28:24.803Z,94.61
2019-01-09T05:30:55.356Z,94.65
2019-01-09T05:33:26.975Z,95.61
2019-01-09T05:35:57.527Z,95.75
2019-01-09T05:38:28.103Z,96.15
2019-01-09T05:40:58.668Z,96.53
2019-01-09T05:43:29.224Z,96.40
2019-01-09T05:45:59.769Z,95.75
2019-01-09T05:48:30.280Z,94.49
2019-01-09T05:51:00.889Z,94.77
2019-01-09T05:53:31.379Z,94.40
2019-01-09T05:56:01.955Z,93.36
2019-01-09T05:58:32.537Z,93.26
2019-01-09T06:01:03.196Z,93.14
2019-01-09T06:03:33.766Z,92.58
2019-01-09T06:06:04.290Z,92.04
2019-01-09T06:08:35.769Z,92.16
2019-01-09T06:11:06.395Z,91.88
2019-01-09T06:13:39.689Z,91.74
2019-01-09T06:16:11.668Z,91.70
2019-01-09T06:18:42.473Z,91.99
2019-01-09T06:21:13.153Z,92.06
2019-01-09T06:23:43.723Z,92.33
2019-01-09T06:26:14.265Z,92.41
2019-01-09T06:28:44.791Z,92.72
2019-01-09T06:31:15.367Z,92.92
2019-01-09T06:33:45.921Z,93.76
2019-01-09T06:36:16.497Z,94.18
2019-01-09T06:38:47.020Z,95.40
2019-01-09T06:41:17.588Z,96.26
2019-01-09T06:43:48.090Z,96.61
2019-01-09T06:46:18.658Z,97.31
2019-01-09T06:48:49.195Z,97.92
2019-01-09T06:51:19.809Z,98.43
2019-01-09T06:53:50.382Z,98.90
2019-01-09T06:56:20.865Z,99.18
2019-01-09T06:58:54.210Z,99.46
2019-01-09T07:01:24.841Z,99.75
2019-01-09T07:03:55.407Z,100.00
2019-01-09T07:06:25.921Z,100.00
2019-01-09T07:08:56.479Z,100.00
2019-01-09T07:11:27.071Z,100.00
2019-01-09T07:13:57.672Z,100.00
2019-01-09T07:16:28.434Z,100.00
2019-01-09T07:18:59.145Z,100.00
2019-01-09T07:21:29.893Z,100.00
2019-01-09T07:24:00.601Z,99.83
2019-01-09T07:26:31.118Z,99.23
2019-01-09T07:29:04.773Z,98.87
2019-01-09T07:31:38.208Z,98.52
2019-01-09T07:34:08.751Z,99.03
2019-01-09T07:36:39.400Z,98.65
2019-01-09T07:39:11.086Z,99.03
2019-01-09T07:41:41.645Z,99.30
2019-01-09T07:44:12.160Z,99.82
2019-01-09T07:46:44.750Z,99.24
2019-01-09T07:49:15.043Z,99.00
2019-01-09T07:51:45.590Z,99.24
2019-01-09T07:54:16.137Z,99.30
2019-01-09T07:56:46.659Z,99.25
2019-01-09T07:59:17.242Z,98.68
2019-01-09T08:01:47.820Z,98.53
2019-01-09T08:04:18.482Z,98.54
2019-01-09T08:06:49.049Z,98.19
2019-01-09T08:09:19.613Z,98.06
2019-01-09T08:11:50.173Z,98.22
2019-01-09T08:14:20.743Z,97.57
2019-01-09T08:16:51.306Z,97.64
2019-01-09T08:19:21.835Z,98.00
2019-01-09T08:21:52.363Z,98.11
2019-01-09T08:24:23.368Z,97.55
2019-01-09T08:26:53.946Z,97.82
2019-01-09T08:29:24.525Z,98.92
2019-01-09T08:31:56.226Z,100.00
2019-01-09T08:34:26.793Z,100.00
2019-01-09T08:36:57.350Z,100.00
2019-01-09T08:39:29.684Z,100.00
2019-01-09T08:42:00.289Z,100.00
2019-01-09T08:44:30.883Z,99.81
2019-01-09T08:47:01.464Z,99.88
2019-01-09T08:49:32.043Z,100.00
2019-01-09T08:52:02.617Z,100.00
2019-01-09T08:54:33.174Z,100.00
2019-01-09T08:57:03.734Z,100.00
2019-01-09T08:59:34.284Z,100.00
2019-01-09T09:02:08.247Z,100.00
2019-01-09T09:04:38.836Z,100.00
2019-01-09T09:07:09.362Z,100.00
2019-01-09T09:09:39.948Z,100.00
2019-01-09T09:12:10.506Z,100.00
2019-01-09T09:14:41.104Z,100.00
2019-01-09T09:17:11.676Z,100.00
2019-01-09T09:19:42.195Z,100.00
2019-01-09T09:22:13.823Z,100.00
2019-01-09T09:24:44.436Z,100.00
2019-01-09T09:27:14.963Z,100.00
2019-01-09T09:29:45.515Z,100.00
2019-01-09T09:32:16.097Z,99.61
2019-01-09T09:34:46.626Z,99.47
2019-01-09T09:37:19.013Z,98.84
2019-01-09T09:39:49.447Z,98.32
2019-01-09T09:42:19.982Z,98.26
2019-01-09T09:44:50.546Z,97.17
2019-01-09T09:47:21.127Z,97.77
2019-01-09T09:49:51.740Z,98.27
2019-01-09T09:52:22.276Z,98.32
2019-01-09T09:54:52.843Z,98.46
2019-01-09T09:57:23.348Z,97.90
2019-01-09T09:59:53.926Z,97.42
2019-01-09T10:02:24.460Z,97.22
2019-01-09T10:04:56.671Z,96.31
2019-01-09T10:07:27.196Z,96.14
2019-01-09T10:09:57.770Z,95.62
2019-01-09T10:12:28.438Z,95.75
2019-01-09T10:14:59.000Z,96.12
2019-01-09T10:17:30.289Z,95.62
2019-01-09T10:20:00.835Z,95.66
2019-01-09T10:22:31.399Z,94.84
2019-01-09T10:25:01.987Z,95.06
2019-01-09T10:27:32.529Z,94.22
2019-01-09T10:30:03.080Z,94.46
2019-01-09T10:32:33.602Z,94.22
2019-01-09T10:35:04.676Z,94.98
2019-01-09T10:37:35.244Z,94.68
2019-01-09T10:40:07.623Z,94.21
2019-01-09T10:42:38.155Z,92.84
2019-01-09T10:45:09.942Z,92.74
2019-01-09T10:47:40.452Z,93.15
2019-01-09T10:50:12.100Z,93.21
2019-01-09T10:52:42.605Z,93.30
2019-01-09T10:55:14.945Z,94.04
2019-01-09T10:57:45.434Z,95.39
2019-01-09T11:00:23.091Z,95.50
2019-01-09T11:02:53.924Z,94.94
2019-01-09T11:05:24.880Z,94.47
2019-01-09T11:07:55.400Z,94.08
2019-01-09T11:10:27.496Z,94.34
2019-01-09T11:12:58.024Z,95.58
2019-01-09T11:15:28.553Z,97.07
2019-01-09T11:17:59.086Z,97.01
2019-01-09T11:20:29.731Z,96.61
2019-01-09T11:23:00.307Z,96.72
2019-01-09T11:25:31.596Z,95.60
2019-01-09T11:28:02.115Z,94.41
2019-01-09T11:30:32.663Z,92.56
2019-01-09T11:33:03.225Z,90.43
2019-01-09T11:35:33.760Z,90.27
2019-01-09T11:38:04.448Z,87.18
2019-01-09T11:40:34.970Z,87.34
2019-01-09T11:43:05.548Z,86.89
2019-01-09T11:45:36.110Z,87.47
2019-01-09T11:48:06.916Z,87.13
2019-01-09T11:50:40.281Z,84.63
2019-01-09T11:53:10.796Z,85.04
2019-01-09T11:55:41.352Z,84.02
2019-01-09T11:58:13.367Z,85.53
2019-01-09T12:00:43.929Z,85.03
2019-01-09T12:03:14.487Z,84.60
2019-01-09T12:05:45.016Z,85.38
2019-01-09T12:08:15.582Z,84.46
2019-01-09T12:10:46.163Z,83.40
2019-01-09T12:13:16.706Z,84.00
2019-01-09T12:15:47.234Z,84.29
2019-01-09T12:18:17.741Z,83.92
2019-01-09T12:20:50.768Z,85.18
2019-01-09T12:23:21.290Z,85.15
2019-01-09T12:25:51.885Z,85.96
2019-01-09T12:28:22.421Z,84.92
2019-01-09T12:30:52.886Z,84.61
2019-01-09T12:33:23.517Z,84.89
2019-01-09T12:35:54.068Z,84.65
2019-01-09T12:38:24.683Z,84.91
2019-01-09T12:40:55.270Z,85.85
2019-01-09T12:43:25.807Z,84.68
2019-01-09T12:45:56.358Z,85.16
2019-01-09T12:48:26.940Z,84.69
2019-01-09T12:50:57.531Z,84.96
2019-01-09T12:53:33.768Z,85.59
2019-01-09T12:56:01.470Z,85.89
2019-01-09T12:58:32.028Z,85.19
2019-01-09T13:01:02.641Z,84.87
2019-01-09T13:03:34.386Z,84.08
2019-01-09T13:06:04.947Z,83.46
2019-01-09T13:08:35.452Z,84.13
2019-01-09T13:11:06.022Z,84.99
2019-01-09T13:13:36.539Z,86.64
2019-01-09T13:16:07.179Z,87.53
2019-01-09T13:18:37.747Z,87.96
2019-01-09T13:21:08.238Z,88.42
2019-01-09T13:23:38.787Z,89.77
2019-01-09T13:26:09.383Z,89.29
2019-01-09T13:28:58.956Z,88.16
2019-01-09T13:31:29.525Z,88.27
2019-01-09T13:34:00.054Z,88.27
2019-01-09T13:36:30.676Z,88.50
2019-01-09T13:39:01.238Z,88.87
2019-01-09T13:41:31.795Z,89.13
2019-01-09T13:44:02.334Z,88.80
2019-01-09T13:46:32.902Z,89.53
2019-01-09T13:49:03.467Z,90.88
2019-01-09T13:51:34.047Z,91.33
2019-01-09T13:54:05.073Z,91.04
2019-01-09T13:56:38.963Z,90.07
2019-01-09T13:59:09.567Z,90.33
2019-01-09T14:01:40.103Z,88.87
2019-01-09T14:04:10.682Z,86.39
2019-01-09T14:06:41.220Z,86.00
2019-01-09T14:09:12.310Z,86.00
2019-01-09T14:11:42.863Z,83.51
2019-01-09T14:14:13.398Z,82.89
2019-01-09T14:16:45.334Z,82.62
2019-01-09T14:19:16.437Z,83.18
2019-01-09T14:21:49.275Z,82.59
2019-01-09T14:24:19.825Z,84.21
2019-01-09T14:26:51.691Z,82.83
2019-01-09T14:29:23.468Z,81.17
2019-01-09T14:31:56.746Z,81.37
2019-01-09T14:34:27.291Z,81.83
2019-01-09T14:36:57.906Z,81.96
2019-01-09T14:39:29.347Z,82.14
2019-01-09T14:41:59.896Z,82.90
2019-01-09T14:44:30.448Z,83.27
2019-01-09T14:47:01.031Z,83.64
2019-01-09T14:49:34.064Z,82.72
2019-01-09T14:52:04.855Z,83.37
2019-01-09T14:54:35.387Z,83.14
2019-01-09T14:57:05.960Z,83.47
2019-01-09T14:59:36.562Z,83.87
2019-01-09T15:02:07.059Z,83.68
2019-01-09T15:04:37.634Z,83.27
2019-01-09T15:07:08.177Z,84.55
2019-01-09T15:09:41.127Z,82.89
2019-01-09T15:12:11.706Z,83.20
2019-01-09T15:14:44.637Z,83.38
2019-01-09T15:17:16.288Z,83.16
2019-01-09T15:19:46.802Z,84.35
2019-01-09T15:22:18.794Z,84.08
2019-01-09T15:24:49.328Z,84.30
2019-01-09T15:27:22.585Z,83.96
2019-01-09T15:29:54.841Z,82.78
2019-01-09T15:32:25.391Z,82.50
2019-01-09T15:34:56.651Z,82.42
2019-01-09T15:37:27.239Z,82.30
2019-01-09T15:40:05.462Z,82.26
2019-01-09T15:42:30.062Z,82.09
2019-01-09T15:45:00.646Z,81.25
2019-01-09T15:47:31.233Z,81.60
2019-01-09T15:50:01.753Z,82.06
2019-01-09T15:52:32.311Z,82.48
2019-01-09T15:55:02.842Z,82.41
2019-01-09T15:57:33.403Z,82.39
2019-01-09T16:00:07.843Z,82.41
2019-01-09T16:02:38.427Z,83.20
2019-01-09T16:05:09.253Z,83.87
2019-01-09T16:07:42.304Z,84.13
2019-01-09T16:10:14.761Z,84.79
2019-01-09T16:12:45.718Z,85.93
2019-01-09T16:15:17.564Z,86.95
2019-01-09T16:17:48.182Z,86.43
2019-01-09T16:20:19.730Z,87.45
2019-01-09T16:22:50.312Z,86.67
2019-01-09T16:25:20.952Z,86.80
2019-01-09T16:27:51.608Z,85.55
2019-01-09T16:30:43.582Z,84.17
2019-01-09T16:33:14.154Z,83.97
2019-01-09T16:35:44.736Z,82.72
2019-01-09T16:38:15.252Z,83.08
2019-01-09T16:40:45.870Z,82.19
2019-01-09T16:43:16.421Z,80.47
2019-01-09T16:45:47.009Z,81.92
2019-01-09T16:48:17.566Z,80.79
2019-01-09T16:50:50.939Z,80.83
2019-01-09T16:53:21.530Z,79.45
2019-01-09T16:55:55.002Z,80.58
2019-01-09T16:58:25.587Z,79.21
2019-01-09T17:00:56.358Z,80.37
2019-01-09T17:03:26.932Z,81.02
2019-01-09T17:05:57.523Z,80.84
2019-01-09T17:08:28.070Z,81.13
2019-01-09T17:10:58.664Z,80.66
2019-01-09T17:13:29.214Z,80.37
2019-01-09T17:15:59.811Z,80.39
2019-01-09T17:18:33.273Z,81.11
2019-01-09T17:21:03.833Z,80.67
2019-01-09T17:23:34.355Z,81.24
2019-01-09T17:26:05.438Z,82.26
2019-01-09T17:28:36.038Z,81.85
2019-01-09T17:31:06.815Z,81.92
2019-01-09T17:33:37.351Z,83.68
2019-01-09T17:36:08.186Z,84.18
2019-01-09T17:38:38.779Z,83.15
2019-01-09T17:41:09.399Z,81.95
2019-01-09T17:43:39.941Z,81.03
2019-01-09T17:46:10.518Z,81.51
2019-01-09T17:48:41.095Z,81.81
2019-01-09T17:51:11.725Z,82.30
2019-01-09T17:53:42.362Z,81.78
2019-01-09T17:56:15.386Z,80.84
2019-01-09T17:58:46.051Z,80.80
2019-01-09T18:01:16.658Z,80.83
2019-01-09T18:03:47.318Z,81.50
2019-01-09T18:06:17.850Z,82.61
2019-01-09T18:08:50.148Z,82.91
2019-01-09T18:11:20.756Z,82.72
2019-01-09T18:13:51.334Z,81.75
2019-01-09T18:16:22.071Z,82.40
2019-01-09T18:18:53.705Z,83.28
2019-01-09T18:21:24.245Z,82.42
2019-01-09T18:23:54.880Z,82.14
2019-01-09T18:26:25.716Z,83.22
2019-01-09T18:28:56.329Z,82.61
2019-01-09T18:32:02.021Z,82.08
2019-01-09T18:35:34.979Z,81.67
2019-01-09T18:38:41.370Z,80.21
2019-01-09T18:41:45.376Z,79.98
2019-01-09T18:44:51.113Z,79.79
2019-01-09T18:48:45.220Z,79.06
2019-01-09T18:52:24.314Z,78.94
2019-01-09T18:54:54.929Z,78.98
2019-01-09T18:57:25.641Z,79.82
2019-01-09T18:59:56.231Z,79.04
2019-01-09T19:02:29.003Z,79.41
2019-01-09T19:04:59.596Z,78.60
2019-01-09T19:07:30.249Z,78.12
2019-01-09T19:10:00.791Z,79.74
2019-01-09T19:12:31.432Z,79.85
2019-01-09T19:15:02.207Z,80.54
2019-01-09T19:17:32.815Z,80.57
2019-01-09T19:20:03.403Z,79.33
2019-01-09T19:22:35.518Z,80.06
2019-01-09T19:25:09.443Z,81.04
2019-01-09T19:27:40.221Z,79.47
2019-01-09T19:30:21.232Z,80.17
2019-01-09T19:32:53.894Z,81.08
2019-01-09T19:35:24.514Z,79.98
2019-01-09T19:37:57.438Z,81.16
2019-01-09T19:40:27.979Z,80.36
2019-01-09T19:42:58.556Z,81.47
2019-01-09T19:45:29.256Z,81.56
2019-01-09T19:47:59.831Z,81.82
2019-01-09T19:50:30.349Z,81.18
2019-01-09T19:53:01.065Z,81.48
2019-01-09T19:55:31.676Z,81.47
2019-01-09T19:58:02.276Z,80.74
2019-01-09T20:00:32.830Z,81.28
2019-01-09T20:03:03.499Z,82.81
2019-01-09T20:05:34.510Z,81.12
2019-01-09T20:08:07.136Z,81.54
2019-01-09T20:10:37.706Z,82.05
2019-01-09T20:13:08.312Z,81.50
2019-01-09T20:15:39.098Z,81.77
2019-01-09T20:18:09.916Z,82.56
2019-01-09T20:20:40.666Z,82.73
2019-01-09T20:23:11.232Z,82.09
2019-01-09T20:25:41.781Z,82.03
2019-01-09T20:28:12.365Z,81.55
2019-01-09T20:30:44.533Z,81.57
2019-01-09T20:33:15.133Z,81.25
2019-01-09T20:35:45.728Z,80.53
2019-01-09T20:38:16.437Z,81.05
2019-01-09T20:40:48.497Z,80.76
2019-01-09T20:43:19.052Z,80.20
2019-01-09T20:45:49.544Z,81.14
2019-01-09T20:48:20.213Z,81.26
2019-01-09T20:50:52.506Z,79.94
2019-01-09T20:53:23.096Z,80.38
2019-01-09T20:55:56.756Z,79.84
2019-01-09T20:58:28.087Z,80.28
2019-01-09T21:00:58.787Z,80.91
2019-01-09T21:03:29.459Z,79.83
2019-01-09T21:06:00.136Z,79.68
2019-01-09T21:08:30.799Z,79.98
2019-01-09T21:11:04.428Z,80.18
2019-01-09T21:13:36.148Z,79.39
2019-01-09T21:16:07.106Z,79.90
2019-01-09T21:18:37.734Z,79.84
2019-01-09T21:21:08.574Z,80.32
2019-01-09T21:23:39.143Z,80.27
2019-01-09T21:26:09.675Z,80.71
2019-01-09T21:28:40.230Z,80.00
2019-01-09T21:31:10.806Z,79.78
2019-01-09T21:33:41.579Z,80.07
2019-01-09T21:36:12.140Z,80.65
2019-01-09T21:38:45.076Z,80.00
2019-01-09T21:41:15.613Z,79.95
2019-01-09T21:43:46.211Z,80.54
2019-01-09T21:46:16.822Z,81.15
2019-01-09T21:48:49.887Z,81.49
2019-01-09T21:51:20.390Z,81.98
2019-01-09T21:53:50.976Z,81.36
2019-01-09T21:56:21.504Z,80.24
2019-01-09T21:58:54.853Z,80.46
2019-01-09T22:01:26.680Z,79.87
2019-01-09T22:03:57.235Z,80.47
2019-01-09T22:06:27.768Z,79.68
2019-01-09T22:08:58.357Z,80.15
2019-01-09T22:11:30.198Z,79.74
2019-01-09T22:14:00.756Z,80.21
2019-01-09T22:16:31.297Z,80.20
2019-01-09T22:19:11.728Z,80.82
2019-01-09T22:21:35.761Z,80.98
2019-01-09T22:24:06.285Z,80.97
2019-01-09T22:26:36.796Z,81.46
2019-01-09T22:29:07.336Z,80.57
2019-01-09T22:31:37.921Z,81.09
2019-01-09T22:34:08.496Z,81.09
2019-01-09T22:36:39.001Z,80.98
2019-01-09T22:39:10.336Z,81.87
2019-01-09T22:41:40.846Z,81.68
2019-01-09T22:44:11.407Z,81.61
2019-01-09T22:46:41.906Z,82.01
2019-01-09T22:49:12.432Z,81.71
2019-01-09T22:51:43.010Z,82.06
2019-01-09T22:54:13.554Z,82.12
2019-01-09T22:56:44.125Z,82.03
2019-01-09T22:59:14.644Z,82.79
2019-01-09T23:01:46.507Z,82.76
2019-01-09T23:04:17.015Z,82.65
2019-01-09T23:06:47.563Z,82.37
2019-01-09T23:09:18.171Z,83.14
2019-01-09T23:11:48.677Z,84.45
2019-01-09T23:14:19.245Z,83.68
2019-01-09T23:16:49.787Z,83.80
2019-01-09T23:19:20.510Z,83.67
2019-01-09T23:21:51.043Z,83.86
2019-01-09T23:24:21.597Z,84.50
2019-01-09T23:26:52.181Z,84.04
2019-01-09T23:29:22.773Z,83.93
2019-01-09T23:31:53.306Z,83.86
2019-01-09T23:34:23.872Z,83.85
2019-01-09T23:36:54.420Z,83.68
2019-01-09T23:39:24.991Z,83.32
2019-01-09T23:41:56.883Z,83.89
2019-01-09T23:44:27.466Z,82.95
2019-01-09T23:46:58.010Z,82.72
2019-01-09T23:49:28.549Z,83.73
2019-01-09T23:51:59.108Z,83.92
2019-01-09T23:54:29.701Z,84.06
2019-01-09T23:57:00.277Z,83.48
2019-01-09T23:59:30.785Z,82.83
